Latest Weather Observations for Rocky Gully South

IDW60801

Issued at 9:13 pm WST Tuesday 23 July 2019 (issued every 10 minutes, with the page automatically refreshed every 10 minutes)

About weather observations | Map of weather stations | Latest weather observations for WA | Other Formats
Station Details ID: 009964 Name: ROCKY GULLY Lat: -34.57 Lon: 117.01 Height: 250.0 m
Data from the previous 72 hours. | See also: Recent months at Rocky Gully South
Date/Time
WST
Temp
°C
App
Temp
°C
Dew
Point
°C
Rel
Hum
%
Delta-T
°C
Wind Press
QNH
hPa
Press
MSL
hPa
Rain since
9am
mm
Dir  Spd
km/h
Gust
km/h
Spd
kts
Gust
kts
23/09:00pm 12.2 10.8 9.0 81 1.6 NNW 6 11 3 6 - - 0.0
23/08:30pm 12.0 11.0 9.0 82 1.5 NW 4 7 2 4 - - 0.0
23/08:00pm 11.9 11.3 9.1 83 1.4 NNW 2 6 1 3 - - 0.0
23/07:30pm 11.5 10.6 9.1 85 1.2 NW 4 7 2 4 - - 0.0
23/07:00pm 11.2 9.7 8.6 84 1.3 NW 6 7 3 4 - - 0.0
23/06:30pm 11.3 10.9 8.3 82 1.5 CALM 0 0 0 0 - - 0.0
23/06:00pm 12.1 11.8 8.6 79 1.8 CALM 0 0 0 0 - - 0.0
23/05:30pm 12.8 12.5 8.7 76 2.1 CALM 0 0 0 0 - - 0.0
23/05:00pm 13.3 12.2 8.6 73 2.4 W 4 11 2 6 - - 0.0
23/04:30pm 13.9 12.5 8.7 71 2.7 W 6 9 3 5 - - 0.0
23/04:00pm 14.0 12.4 8.8 71 2.7 W 7 15 4 8 - - 0.0
23/03:30pm 14.1 12.6 9.3 73 2.5 WNW 7 15 4 8 - - 0.0
23/03:00pm 14.4 13.0 9.6 73 2.5 W 7 15 4 8 - - 0.0
23/02:30pm 14.1 12.3 9.3 73 2.5 W 9 15 5 8 - - 0.0
23/02:00pm 13.9 13.1 9.7 76 2.2 WSW 4 9 2 5 - - 0.0
23/01:30pm 13.9 12.7 9.7 76 2.2 WSW 6 11 3 6 - - 0.0
23/01:00pm 13.7 11.9 9.4 75 2.2 W 9 20 5 11 - - 0.0
23/12:30pm 13.7 11.9 9.6 76 2.1 W 9 17 5 9 - - 0.0
23/12:00pm 13.5 11.7 9.4 76 2.1 W 9 15 5 8 - - 0.0
23/11:30am 13.4 11.6 9.6 78 2.0 WSW 9 17 5 9 - - 0.0
23/11:00am 13.1 12.0 10.5 84 1.4 WSW 7 15 4 8 - - 0.0
23/10:30am 12.7 11.6 10.8 88 1.0 WSW 7 19 4 10 - - 0.0
23/10:00am 12.0 10.9 10.6 91 0.7 W 7 15 4 8 - - 0.0
23/09:30am 11.8 10.9 10.7 93 0.6 W 6 15 3 8 - - 0.0
23/09:00am 11.5 10.0 10.4 93 0.6 W 9 15 5 8 - - 1.2
23/08:30am 11.2 10.0 10.3 94 0.5 WNW 7 11 4 6 - - 1.2
23/08:00am 10.5 9.1 9.4 93 0.6 NW 7 13 4 7 - - 1.2
23/07:30am 10.8 10.4 9.7 93 0.6 NW 2 9 1 5 - - 1.2
23/07:00am 10.8 10.0 9.7 93 0.6 WNW 4 11 2 6 - - 1.2
23/06:30am 10.9 9.8 9.8 93 0.6 WNW 6 9 3 5 - - 1.2
23/06:00am 11.0 9.9 9.9 93 0.6 W 6 11 3 6 - - 1.2
23/05:30am 11.1 9.8 10.0 93 0.6 W 7 13 4 7 - - 1.0
23/05:00am 11.1 9.1 10.0 93 0.6 WSW 11 19 6 10 - - 1.0
23/04:30am 11.1 9.4 10.0 93 0.6 W 9 19 5 10 - - 1.0
23/04:00am 11.2 9.2 10.1 93 0.6 WNW 11 17 6 9 - - 0.8
23/03:30am 11.1 9.1 10.0 93 0.6 WNW 11 17 6 9 - - 0.8
23/03:00am 10.9 9.2 9.7 92 0.6 WNW 9 20 5 11 - - 0.6
23/02:30am 10.8 9.4 9.6 92 0.6 NW 7 15 4 8 - - 0.6
23/02:00am 10.7 8.9 9.5 92 0.6 NW 9 15 5 8 - - 0.2
23/01:30am 10.8 9.0 9.4 91 0.7 NW 9 17 5 9 - - 0.0
23/01:00am 10.8 8.9 9.2 90 0.8 WNW 9 15 5 8 - - 0.0
23/12:30am 10.6 8.3 9.0 90 0.8 WNW 11 19 6 10 - - 0.0
23/12:00am 10.6 8.3 8.9 89 0.9 WNW 11 24 6 13 - - 0.0
 
Date/Time
WST
Temp
°C
App
Temp
°C
Dew
Point
°C
Rel
Hum
%
Delta-T
°C
Wind Press
QNH
hPa
Press
MSL
hPa
Rain since
9am
mm
Dir  Spd
km/h
Gust
km/h
Spd
kts
Gust
kts
22/11:30pm 10.5 7.8 8.8 89 0.8 WNW 13 26 7 14 - - 0.0
22/11:00pm 10.1 7.3 8.4 89 0.8 NW 13 20 7 11 - - 0.0
22/10:30pm 9.7 7.5 8.0 89 0.8 NW 9 15 5 8 - - 0.0
22/10:00pm 9.8 8.0 7.9 88 0.9 NW 7 13 4 7 - - 0.0
22/09:30pm 9.8 7.7 8.1 89 0.8 NW 9 15 5 8 - - 0.0
22/09:00pm 9.8 7.6 7.7 87 1.0 WNW 9 17 5 9 - - 0.0
22/08:30pm 10.1 7.9 7.9 86 1.1 NW 9 19 5 10 - - 0.0
22/08:00pm 10.4 8.2 7.8 84 1.3 WNW 9 15 5 8 - - 0.0
22/07:30pm 10.5 7.9 7.7 83 1.4 WNW 11 19 6 10 - - 0.0
22/07:00pm 10.5 7.9 7.6 82 1.4 WNW 11 19 6 10 - - 0.0
22/06:30pm 10.5 8.2 7.4 81 1.5 NW 9 15 5 8 - - 0.0
22/06:00pm 10.6 8.3 7.5 81 1.5 WNW 9 19 5 10 - - 0.0
22/05:30pm 10.8 7.7 7.3 79 1.7 WNW 13 22 7 12 - - 0.0
22/05:00pm 11.4 9.0 7.1 75 2.1 W 9 20 5 11 - - 0.0
22/04:30pm 11.6 9.2 7.1 74 2.2 WNW 9 15 5 8 - - 0.0
22/04:00pm 12.4 10.3 8.1 75 2.1 WNW 9 19 5 10 - - 0.0
22/03:30pm 11.7 9.4 7.6 76 2.0 W 9 19 5 10 - - 0.0
22/03:00pm 11.6 8.9 7.5 76 2.0 WNW 11 30 6 16 - - 0.0
22/02:30pm 11.9 8.4 7.4 74 2.2 WNW 15 32 8 17 - - 0.0
22/02:00pm 11.5 8.4 7.4 76 2.0 W 13 24 7 13 - - 0.0
22/01:30pm 11.8 8.7 5.4 65 3.0 WSW 11 22 6 12 - - 0.0
22/01:00pm 11.9 8.4 5.3 64 3.1 W 13 28 7 15 - - 0.0
22/12:30pm 11.4 7.8 5.1 65 2.9 WSW 13 24 7 13 - - 0.0
22/12:00pm 11.3 8.7 6.2 71 2.4 WSW 9 17 5 9 - - 0.0
22/11:30am 11.1 7.8 6.3 72 2.3 W 13 26 7 14 - - 0.0
22/11:00am 11.1 7.9 5.2 67 2.7 WSW 11 19 6 10 - - 0.0
22/10:30am 11.0 7.4 4.9 66 2.8 WSW 13 22 7 12 - - 0.0
22/10:00am 10.7 7.4 4.8 67 2.7 W 11 19 6 10 - - 0.0
22/09:30am 10.2 6.9 4.8 69 2.5 WSW 11 19 6 10 - - 0.0
22/09:00am 9.9 7.4 4.9 71 2.3 W 7 17 4 9 - - 7.2
22/08:30am 9.3 6.7 4.3 71 2.2 W 7 13 4 7 - - 7.2
22/08:00am 9.2 6.2 4.2 71 2.2 W 9 22 5 12 - - 7.2
22/07:30am 9.1 6.1 3.9 70 2.3 WSW 9 19 5 10 - - 7.2
22/07:00am 8.8 5.8 4.2 73 2.0 WSW 9 17 5 9 - - 7.2
22/06:30am 8.5 5.8 5.8 83 1.2 WSW 9 17 5 9 - - 7.2
22/06:00am 8.3 5.7 5.9 85 1.1 W 9 17 5 9 - - 7.2
22/05:30am 8.2 5.9 5.5 83 1.2 W 7 19 4 10 - - 7.2
22/05:00am 8.3 5.8 4.7 78 1.6 WNW 7 13 4 7 - - 7.2
22/04:30am 8.8 5.9 4.8 76 1.8 W 9 19 5 10 - - 7.2
22/04:00am 8.9 6.3 4.3 73 2.1 W 7 19 4 10 - - 7.2
22/03:30am 9.0 6.0 4.0 71 2.2 W 9 15 5 8 - - 7.2
22/03:00am 9.1 6.1 4.1 71 2.2 WSW 9 26 5 14 - - 7.2
22/02:30am 9.5 6.0 5.3 75 1.9 WSW 13 30 7 16 - - 7.2
22/02:00am 9.4 5.5 7.0 85 1.1 WSW 17 32 9 17 - - 7.2
22/01:30am 9.4 6.9 6.7 83 1.3 W 9 15 5 8 - - 7.2
22/01:00am 9.1 6.9 6.2 82 1.4 W 7 17 4 9 - - 7.2
22/12:30am 9.1 6.5 6.2 82 1.4 WNW 9 15 5 8 - - 7.2
22/12:00am 9.4 6.4 6.1 80 1.5 W 11 19 6 10 - - 7.0
 
Date/Time
WST
Temp
°C
App
Temp
°C
Dew
Point
°C
Rel
Hum
%
Delta-T
°C
Wind Press
QNH
hPa
Press
MSL
hPa
Rain since
9am
mm
Dir  Spd
km/h
Gust
km/h
Spd
kts
Gust
kts
21/11:30pm 9.8 6.7 5.4 74 2.0 W 11 20 6 11 - - 7.0
21/11:00pm 9.8 6.3 5.6 75 1.9 W 13 22 7 12 - - 7.0
21/10:30pm 9.6 6.6 5.8 77 1.8 W 11 19 6 10 - - 7.0
21/10:00pm 10.0 6.9 5.6 74 2.0 W 11 20 6 11 - - 7.0
21/09:30pm 10.7 6.6 6.3 74 2.1 WSW 17 30 9 16 - - 7.0
21/09:00pm 11.2 7.5 7.9 80 1.6 WSW 17 37 9 20 - - 7.0
21/08:30pm 11.0 8.6 8.6 85 1.2 W 11 24 6 13 - - 7.0
21/08:00pm 11.3 8.2 8.9 85 1.2 W 15 35 8 19 - - 7.0
21/07:30pm 11.5 8.6 9.8 89 0.9 W 15 39 8 21 - - 7.0
21/07:00pm 11.5 9.0 9.8 89 0.9 W 13 22 7 12 - - 7.0
21/06:30pm 11.9 8.4 10.1 89 0.9 W 19 32 10 17 - - 7.0
21/06:00pm 11.8 8.6 10.0 89 0.9 W 17 33 9 18 - - 7.0
21/05:30pm 12.0 8.8 10.1 88 1.0 W 17 32 9 17 - - 6.8
21/05:00pm 12.3 9.9 10.0 86 1.2 WNW 13 30 7 16 - - 6.8
21/04:30pm 12.6 9.2 10.5 87 1.1 WNW 19 33 10 18 - - 6.8
21/04:00pm 12.6 10.0 10.8 89 1.0 WNW 15 26 8 14 - - 6.8
21/03:30pm 12.7 9.8 11.1 90 0.9 WNW 17 30 9 16 - - 6.6
21/03:00pm 12.7 9.8 11.1 90 0.9 WNW 17 32 9 17 - - 6.4
21/02:30pm 12.7 9.8 11.1 90 0.9 W 17 33 9 18 - - 6.0
21/02:00pm 12.4 9.8 10.8 90 0.8 W 15 26 8 14 - - 4.6
21/01:30pm 12.6 10.1 11.0 90 0.8 NW 15 37 8 20 - - 1.6
21/01:00pm 12.6 9.6 10.8 89 1.0 WNW 17 32 9 17 - - 1.2
21/12:30pm 13.0 10.5 11.2 89 1.0 NW 15 35 8 19 - - 0.8
21/12:00pm 12.4 9.9 11.0 91 0.7 NW 15 24 8 13 - - 0.8
21/11:30am 12.1 9.1 10.7 91 0.7 NW 17 33 9 18 - - 0.8
21/11:00am 11.7 8.3 10.4 92 0.7 NW 19 32 10 17 - - 0.8
21/10:30am 11.4 8.2 10.0 91 0.7 NW 17 32 9 17 - - 0.2
21/10:00am 11.5 9.5 10.1 91 0.7 NW 11 20 6 11 - - 0.0
21/09:30am 11.3 8.5 10.0 92 0.7 NW 15 30 8 16 - - 0.0
21/09:00am 11.0 8.1 9.8 92 0.6 WNW 15 26 8 14 - - 4.6
21/08:30am 11.0 8.1 9.8 92 0.6 NW 15 28 8 15 - - 4.0
21/08:00am 10.8 8.3 9.7 93 0.6 NW 13 26 7 14 - - 4.0
21/07:30am 10.8 8.7 9.7 93 0.6 NW 11 17 6 9 - - 4.0
21/07:00am 10.7 8.9 9.5 92 0.6 NW 9 17 5 9 - - 4.0
21/06:30am 10.8 8.7 9.6 92 0.6 WNW 11 20 6 11 - - 3.6
21/06:00am 10.6 8.8 9.4 92 0.6 NW 9 13 5 7 - - 3.4
21/05:30am 10.8 8.6 9.4 91 0.7 NW 11 20 6 11 - - 3.4
21/05:00am 11.0 8.9 9.6 91 0.7 NW 11 26 6 14 - - 3.0
21/04:30am 10.9 8.8 9.7 92 0.6 NW 11 28 6 15 - - 3.0
21/04:00am 10.8 9.0 9.6 92 0.6 WNW 9 19 5 10 - - 3.0
21/03:30am 10.9 8.4 9.7 92 0.6 NW 13 28 7 15 - - 3.0
21/03:00am 10.9 8.8 9.8 93 0.6 NW 11 20 6 11 - - 2.8
21/02:30am 11.0 8.9 9.9 93 0.6 NW 11 19 6 10 - - 2.6
21/02:00am 11.0 8.6 9.9 93 0.6 WNW 13 22 7 12 - - 2.6
21/01:30am 11.0 8.9 9.8 92 0.6 NW 11 20 6 11 - - 2.2
21/01:00am 11.0 8.5 9.8 92 0.6 NW 13 22 7 12 - - 2.0
21/12:30am 11.1 8.7 9.9 92 0.6 NW 13 26 7 14 - - 2.0
21/12:00am 11.1 8.7 9.9 92 0.6 NW 13 22 7 12 - - 1.8
 
Date/Time
WST
Temp
°C
App
Temp
°C
Dew
Point
°C
Rel
Hum
%
Delta-T
°C
Wind Press
QNH
hPa
Press
MSL
hPa
Rain since
9am
mm
Dir  Spd
km/h
Gust
km/h
Spd
kts
Gust
kts
20/11:30pm 11.1 9.0 9.9 92 0.6 NW 11 19 6 10 - - 1.8
20/11:00pm 11.1 9.4 9.9 92 0.6 NW 9 17 5 9 - - 1.8
20/10:30pm 11.2 8.8 9.9 92 0.7 WNW 13 26 7 14 - - 1.8
20/10:00pm 11.3 9.3 10.0 92 0.7 NW 11 22 6 12 - - 1.6
20/09:30pm 11.1 9.4 9.9 92 0.6 NW 9 15 5 8 - - 1.6

Other formats

Comma delimited format used in spreadsheet applications
http://www.bom.gov.au/fwo/IDW60801/IDW60801.94631.axf

JavaScript Object Notation format (JSON) in row-major order
http://www.bom.gov.au/fwo/IDW60801/IDW60801.94631.json

Data quality

Most of these data are generated automatically and are frequently updated. Quality checks on data are not normally performed. It is possible for incorrect values to appear. Refer to information at About Latest Weather Observations and please check the disclaimer before using these data.